Terminal Aerodrome Forecast
Issued by NWS

Current Version | Previous Version | Graphics & Text | Print | Product List | Glossary On
Versions: 1 2 3 4 5 6 7 8 9 10 11 12 13 14 15 16 17 18 19 20 21 22
046
FTUS41 KILN 132324
TAFLUK
TAF
KLUK 132324Z 1400/1424 00000KT P6SM SCT250
     FM141100 VRB03KT P6SM BKN080
     FM141600 17004KT P6SM SCT050=

USA.gov is the U.S. government's official web portal to all federal, state and local government web resources and services.